createdAt,value
2022-09-09T00:02:21.813Z,100118.44
2022-09-09T00:04:56.301Z,100175.66
2022-09-09T00:07:49.667Z,100166.84
2022-09-09T00:10:32.565Z,100105.16
2022-09-09T00:13:07.340Z,100161.44
2022-09-09T00:15:41.799Z,100164.03
2022-09-09T00:18:29.177Z,100117.84
2022-09-09T00:21:16.609Z,100107.56
2022-09-09T00:23:55.911Z,100147.28
2022-09-09T00:26:33.045Z,100155.06
2022-09-09T00:29:13.126Z,100136.84
2022-09-09T00:31:44.551Z,100139.66
2022-09-09T00:34:20.785Z,100093.09
2022-09-09T00:36:54.044Z,100154.25
2022-09-09T00:39:34.156Z,100143.97
2022-09-09T00:42:34.214Z,100117.59
2022-09-09T00:45:35.828Z,100150.09
2022-09-09T00:48:14.374Z,100127.22
2022-09-09T00:50:56.710Z,100136.03
2022-09-09T00:53:59.075Z,100137.03
2022-09-09T00:57:03.965Z,100136.25
2022-09-09T00:59:51.900Z,100134.88
2022-09-09T01:02:47.190Z,100131.78
2022-09-09T01:05:31.224Z,100145.84
2022-09-09T01:08:06.722Z,100088.56
2022-09-09T01:10:55.286Z,100137.31
2022-09-09T01:13:34.671Z,100084.47
2022-09-09T01:16:12.484Z,100140.03
2022-09-09T01:18:50.616Z,100148.16
2022-09-09T01:21:31.204Z,100152.69
2022-09-09T01:24:09.349Z,100144.75
2022-09-09T01:26:43.649Z,100119.44
2022-09-09T01:29:18.239Z,100126.53
2022-09-09T01:31:54.067Z,100095.50
2022-09-09T01:34:32.805Z,100137.19
2022-09-09T01:37:08.211Z,100120.06
2022-09-09T01:39:43.869Z,100129.56
2022-09-09T01:42:17.123Z,100090.53
2022-09-09T01:44:48.495Z,100121.81
2022-09-09T01:47:19.925Z,100132.34
2022-09-09T01:49:51.403Z,100134.91
2022-09-09T01:52:23.137Z,100124.41
2022-09-09T01:54:54.707Z,100131.44
2022-09-09T01:57:31.232Z,100128.63
2022-09-09T02:00:12.796Z,100141.09
2022-09-09T02:02:57.025Z,100140.03
2022-09-09T02:05:45.413Z,100106.81
2022-09-09T02:08:31.248Z,100128.56
2022-09-09T02:11:09.311Z,100136.06
2022-09-09T02:13:42.173Z,100096.94
2022-09-09T02:16:40.136Z,100104.69
2022-09-09T02:19:26.338Z,100142.72
2022-09-09T02:22:00.777Z,100116.59
2022-09-09T02:24:35.956Z,100145.38
2022-09-09T02:27:09.832Z,100129.81
2022-09-09T02:29:43.958Z,100141.16
2022-09-09T02:32:18.811Z,100107.28
2022-09-09T02:34:57.012Z,100116.84
2022-09-09T02:37:36.262Z,100117.84
2022-09-09T02:40:11.347Z,100116.22
2022-09-09T02:42:46.267Z,100108.72
2022-09-09T02:45:20.336Z,100065.13
2022-09-09T02:48:07.135Z,100113.94
2022-09-09T02:50:51.046Z,100091.66
2022-09-09T02:53:31.804Z,100073.56
2022-09-09T02:56:14.896Z,100125.78
2022-09-09T02:58:47.150Z,100117.22
2022-09-09T03:01:18.793Z,100126.94
2022-09-09T03:03:50.292Z,100128.00
2022-09-09T03:06:22.717Z,100129.03
2022-09-09T03:08:55.285Z,100125.56
2022-09-09T03:11:28.777Z,100123.94
2022-09-09T03:14:00.200Z,100132.81
2022-09-09T03:16:31.591Z,100133.09
2022-09-09T03:19:03.044Z,100132.41
2022-09-09T03:21:34.527Z,100079.31
2022-09-09T03:24:07.521Z,100126.31
2022-09-09T03:26:39.189Z,100097.47
2022-09-09T03:29:10.670Z,100123.66
2022-09-09T03:31:42.107Z,100124.56
2022-09-09T03:34:14.622Z,100132.50
2022-09-09T03:36:59.422Z,100143.13
2022-09-09T03:39:31.081Z,100134.66
2022-09-09T03:42:05.100Z,100142.44
2022-09-09T03:44:36.523Z,100153.91
2022-09-09T03:47:08.000Z,100137.22
2022-09-09T03:49:39.308Z,100132.16
2022-09-09T03:52:11.198Z,100134.78
2022-09-09T03:54:43.373Z,100116.41
2022-09-09T03:57:17.655Z,100155.34
2022-09-09T03:59:49.025Z,100151.47
2022-09-09T04:02:20.411Z,100134.81
2022-09-09T04:04:51.847Z,100136.41
2022-09-09T04:07:23.248Z,100146.72
2022-09-09T04:09:55.580Z,100153.56
2022-09-09T04:12:26.974Z,100105.94
2022-09-09T04:14:58.409Z,100164.22
2022-09-09T04:17:29.946Z,100154.78
2022-09-09T04:20:02.400Z,100156.50
2022-09-09T04:22:34.067Z,100164.50
2022-09-09T04:25:06.972Z,100145.50
2022-09-09T04:27:38.341Z,100160.50
2022-09-09T04:30:11.117Z,100141.31
2022-09-09T04:32:42.600Z,100146.72
2022-09-09T04:35:14.303Z,100150.38
2022-09-09T04:37:45.899Z,100153.97
2022-09-09T04:40:17.456Z,100142.59
2022-09-09T04:42:49.388Z,100151.47
2022-09-09T04:45:20.877Z,100156.78
2022-09-09T04:47:52.334Z,100152.38
2022-09-09T04:50:23.847Z,100148.91
2022-09-09T04:52:55.387Z,100147.94
2022-09-09T04:55:26.710Z,100161.25
2022-09-09T04:57:58.625Z,100149.84
2022-09-09T05:00:30.003Z,100159.69
2022-09-09T05:03:05.099Z,100150.13
2022-09-09T05:05:36.819Z,100167.34
2022-09-09T05:08:09.941Z,100151.53
2022-09-09T05:10:42.801Z,100168.03
2022-09-09T05:13:14.202Z,100181.66
2022-09-09T05:15:53.920Z,100173.31
2022-09-09T05:18:25.494Z,100174.69
2022-09-09T05:21:01.262Z,100178.56
2022-09-09T05:23:34.771Z,100183.47
2022-09-09T05:26:07.217Z,100180.50
2022-09-09T05:28:38.665Z,100193.28
2022-09-09T05:31:13.762Z,100184.16
2022-09-09T05:33:47.367Z,100189.94
2022-09-09T05:36:21.359Z,100142.78
2022-09-09T05:38:54.704Z,100199.31
2022-09-09T05:41:26.501Z,100185.22
2022-09-09T05:43:59.696Z,100170.38
2022-09-09T05:46:31.349Z,100164.22
2022-09-09T05:49:04.996Z,100152.50
2022-09-09T05:51:36.426Z,100213.28
2022-09-09T05:54:07.722Z,100197.25
2022-09-09T05:56:39.072Z,100204.88
2022-09-09T05:59:10.570Z,100219.78
2022-09-09T06:01:42.057Z,100212.69
2022-09-09T06:04:13.642Z,100206.53
2022-09-09T06:06:45.082Z,100217.03
2022-09-09T06:09:16.356Z,100179.44
2022-09-09T06:11:47.682Z,100212.22
2022-09-09T06:14:19.063Z,100195.78
2022-09-09T06:16:50.493Z,100221.56
2022-09-09T06:19:21.824Z,100206.63
2022-09-09T06:21:53.251Z,100224.44
2022-09-09T06:24:24.679Z,100184.03
2022-09-09T06:26:56.826Z,100176.59
2022-09-09T06:29:28.206Z,100232.97
2022-09-09T06:31:59.929Z,100233.41
2022-09-09T06:34:31.490Z,100226.19
2022-09-09T06:37:02.982Z,100184.88
2022-09-09T06:39:34.377Z,100233.22
2022-09-09T06:42:05.948Z,100195.53
2022-09-09T06:44:37.446Z,100245.72
2022-09-09T06:47:08.932Z,100237.56
2022-09-09T06:49:40.270Z,100245.44
2022-09-09T06:52:11.668Z,100231.25
2022-09-09T06:54:42.945Z,100243.25
2022-09-09T06:57:36.361Z,100216.06
2022-09-09T07:00:06.289Z,100246.06
2022-09-09T07:02:40.089Z,100235.56
2022-09-09T07:05:11.640Z,100234.25
2022-09-09T07:07:44.112Z,100236.56
2022-09-09T07:10:15.569Z,100238.00
2022-09-09T07:12:52.662Z,100189.81
2022-09-09T07:15:24.207Z,100238.25
2022-09-09T07:17:55.605Z,100243.31
2022-09-09T07:20:26.959Z,100241.09
2022-09-09T07:22:59.408Z,100251.13
2022-09-09T07:25:31.315Z,100207.91
2022-09-09T07:28:02.930Z,100247.88
2022-09-09T07:30:34.297Z,100230.84
2022-09-09T07:33:05.850Z,100257.31
2022-09-09T07:35:37.940Z,100238.13
2022-09-09T07:38:10.420Z,100246.34
2022-09-09T07:40:42.070Z,100247.03
2022-09-09T07:43:17.250Z,100243.50
2022-09-09T07:45:50.903Z,100211.53
2022-09-09T07:48:22.330Z,100259.44
2022-09-09T07:50:53.619Z,100264.72
2022-09-09T07:53:24.991Z,100252.75
2022-09-09T07:55:56.610Z,100244.63
2022-09-09T07:58:27.952Z,100254.69
2022-09-09T08:00:59.509Z,100250.72
2022-09-09T08:03:30.807Z,100263.25
2022-09-09T08:06:08.587Z,100237.13
2022-09-09T08:08:42.084Z,100252.53
2022-09-09T08:11:18.381Z,100254.25
2022-09-09T08:13:54.332Z,100265.84
2022-09-09T08:16:29.429Z,100249.69
2022-09-09T08:19:00.879Z,100286.69
2022-09-09T08:21:34.082Z,100269.28
2022-09-09T08:24:08.882Z,100235.84
2022-09-09T08:26:42.599Z,100235.25
2022-09-09T08:29:14.753Z,100253.97
2022-09-09T08:31:48.721Z,100282.53
2022-09-09T08:34:20.917Z,100268.56
2022-09-09T08:36:52.793Z,100242.78
2022-09-09T08:39:24.293Z,100265.53
2022-09-09T08:42:22.682Z,100272.81
2022-09-09T08:44:59.691Z,100278.13
2022-09-09T08:47:56.005Z,100286.91
2022-09-09T08:50:30.829Z,100260.91
2022-09-09T08:53:15.569Z,100275.28
2022-09-09T08:55:50.698Z,100268.59
2022-09-09T08:58:30.356Z,100271.72
2022-09-09T09:01:09.687Z,100282.22
2022-09-09T09:03:58.126Z,100271.63
2022-09-09T09:06:34.420Z,100293.94
2022-09-09T09:09:31.332Z,100290.84
2022-09-09T09:12:10.478Z,100260.69
2022-09-09T09:14:45.098Z,100291.47
2022-09-09T09:17:23.000Z,100272.34
2022-09-09T09:19:55.209Z,100291.75
2022-09-09T09:22:52.081Z,100294.13
2022-09-09T09:25:32.511Z,100285.72
2022-09-09T09:28:20.179Z,100291.13
2022-09-09T09:31:06.731Z,100280.97
2022-09-09T09:33:50.615Z,100282.78
2022-09-09T09:36:33.830Z,100280.53
2022-09-09T09:42:05.132Z,100293.03
2022-09-09T09:44:38.261Z,100271.75
2022-09-09T09:47:14.313Z,100287.63
2022-09-09T09:50:00.267Z,100288.81
2022-09-09T09:52:33.191Z,100285.22
2022-09-09T09:55:08.416Z,100260.72
2022-09-09T09:57:40.094Z,100271.56
2022-09-09T10:00:21.413Z,100274.72
2022-09-09T10:02:53.652Z,100296.53
2022-09-09T10:05:30.589Z,100288.28
2022-09-09T10:08:13.120Z,100253.84
2022-09-09T10:11:17.944Z,100271.78
2022-09-09T10:13:59.309Z,100294.16
2022-09-09T10:17:07.141Z,100275.75
2022-09-09T10:19:41.927Z,100283.00
2022-09-09T10:22:28.449Z,100287.66
2022-09-09T10:25:17.616Z,100283.63
2022-09-09T10:28:09.966Z,100284.94
2022-09-09T10:31:17.321Z,100286.66
2022-09-09T10:33:54.806Z,100293.09
2022-09-09T10:36:30.658Z,100281.84
2022-09-09T10:39:15.925Z,100287.22
2022-09-09T10:42:06.734Z,100256.34
2022-09-09T10:45:00.657Z,100269.16
2022-09-09T10:47:40.753Z,100288.75
2022-09-09T10:51:11.453Z,100283.72
2022-09-09T10:54:05.958Z,100282.88
2022-09-09T10:56:39.660Z,100262.03
2022-09-09T10:59:18.380Z,100263.59
2022-09-09T11:02:03.385Z,100272.13
2022-09-09T11:04:43.930Z,100258.94
2022-09-09T11:07:29.487Z,100237.59
2022-09-09T11:10:07.310Z,100249.06
2022-09-09T11:12:41.910Z,100253.88
2022-09-09T11:15:23.804Z,100245.38
2022-09-09T11:17:59.613Z,100248.19
2022-09-09T11:20:33.062Z,100278.78
2022-09-09T11:23:13.400Z,100237.50
2022-09-09T11:26:01.059Z,100245.84
2022-09-09T11:28:45.540Z,100280.88
2022-09-09T11:31:46.224Z,100250.56
2022-09-09T11:34:32.356Z,100273.91
2022-09-09T11:37:18.253Z,100265.56
2022-09-09T11:40:09.428Z,100286.31
2022-09-09T11:42:41.044Z,100273.94
2022-09-09T11:45:26.737Z,100277.72
2022-09-09T11:48:00.509Z,100254.91
2022-09-09T11:50:38.560Z,100245.69
2022-09-09T11:53:23.446Z,100272.84
2022-09-09T11:56:05.969Z,100269.66
2022-09-09T11:58:57.649Z,100274.75
2022-09-09T12:01:34.939Z,100262.56
2022-09-09T12:04:12.173Z,100271.41
2022-09-09T12:06:47.129Z,100261.72
2022-09-09T12:09:43.442Z,100268.34
2022-09-09T12:12:14.821Z,100273.13
2022-09-09T12:15:20.856Z,100255.53
2022-09-09T12:17:55.905Z,100219.69
2022-09-09T12:20:32.389Z,100274.59
2022-09-09T12:23:22.179Z,100275.22
2022-09-09T12:26:09.827Z,100283.25
2022-09-09T12:28:51.741Z,100252.13
2022-09-09T12:31:47.549Z,100233.66
2022-09-09T12:34:46.476Z,100280.03
2022-09-09T12:37:28.226Z,100279.41
2022-09-09T12:40:03.107Z,100264.81
2022-09-09T12:42:41.499Z,100259.56
2022-09-09T12:45:33.795Z,100283.13
2022-09-09T12:48:09.405Z,100305.72
2022-09-09T12:50:48.702Z,100298.06
2022-09-09T12:53:27.215Z,100312.00
2022-09-09T12:56:11.013Z,100247.88
2022-09-09T12:58:47.850Z,100314.22
2022-09-09T13:01:25.322Z,100271.22
2022-09-09T13:03:57.718Z,100263.09
2022-09-09T13:06:31.602Z,100302.94
2022-09-09T13:09:03.876Z,100302.03
2022-09-09T13:11:40.918Z,100317.72
2022-09-09T13:14:35.638Z,100311.75
2022-09-09T13:17:18.108Z,100257.84
2022-09-09T13:19:53.464Z,100330.19
2022-09-09T13:22:38.839Z,100327.19
2022-09-09T13:25:10.958Z,100334.03
2022-09-09T13:27:56.911Z,100281.63
2022-09-09T13:30:30.424Z,100338.72
2022-09-09T13:33:13.937Z,100322.59
2022-09-09T13:36:04.347Z,100261.44
2022-09-09T13:38:55.811Z,100307.03
2022-09-09T13:41:33.533Z,100295.72
2022-09-09T13:44:07.515Z,100300.69
2022-09-09T13:46:41.429Z,100286.19
2022-09-09T13:49:12.717Z,100321.41
2022-09-09T13:51:47.852Z,100305.72
2022-09-09T13:54:21.122Z,100307.03
2022-09-09T13:56:52.478Z,100305.53
2022-09-09T13:59:30.713Z,100289.13
2022-09-09T14:02:14.942Z,100296.00
2022-09-09T14:04:46.378Z,100249.50
2022-09-09T14:07:19.728Z,100293.03
2022-09-09T14:09:52.691Z,100294.47
2022-09-09T14:12:24.120Z,100275.41
2022-09-09T14:14:55.391Z,100256.72
2022-09-09T14:17:32.071Z,100257.50
2022-09-09T14:20:08.860Z,100223.53
2022-09-09T14:22:40.263Z,100249.53
2022-09-09T14:25:14.315Z,100234.56
2022-09-09T14:27:46.843Z,100238.72
2022-09-09T14:30:18.265Z,100260.25
2022-09-09T14:32:49.678Z,100257.56
2022-09-09T14:35:21.021Z,100243.44
2022-09-09T14:37:52.712Z,100224.13
2022-09-09T14:40:24.035Z,100248.88
2022-09-09T14:42:56.662Z,100244.13
2022-09-09T14:45:28.048Z,100249.78
2022-09-09T14:48:00.412Z,100261.81
2022-09-09T14:50:31.898Z,100252.91
2022-09-09T14:53:03.344Z,100255.09
2022-09-09T14:55:34.806Z,100210.47
2022-09-09T14:58:07.148Z,100231.09
2022-09-09T15:00:38.417Z,100265.59
2022-09-09T15:03:11.737Z,100240.47
2022-09-09T15:05:43.016Z,100252.44
2022-09-09T15:08:16.975Z,100234.75
2022-09-09T15:10:48.334Z,100267.69
2022-09-09T15:13:19.613Z,100268.13
2022-09-09T15:15:51.160Z,100260.16
2022-09-09T15:18:22.689Z,100274.63
2022-09-09T15:20:54.194Z,100282.41
2022-09-09T15:23:25.536Z,100278.78
2022-09-09T15:25:57.444Z,100255.03
2022-09-09T15:28:29.170Z,100294.91
2022-09-09T15:31:07.779Z,100271.66
2022-09-09T15:33:39.397Z,100276.16
2022-09-09T15:36:19.622Z,100285.97
2022-09-09T15:38:52.421Z,100290.53
2022-09-09T15:41:24.547Z,100291.81
2022-09-09T15:44:00.758Z,100265.38
2022-09-09T15:46:38.162Z,100295.94
2022-09-09T15:49:12.663Z,100288.44
2022-09-09T15:51:52.388Z,100266.47
2022-09-09T15:54:25.161Z,100275.50
2022-09-09T15:56:59.868Z,100294.81
2022-09-09T15:59:32.389Z,100292.41
2022-09-09T16:02:04.055Z,100241.13
2022-09-09T16:04:35.487Z,100256.19
2022-09-09T16:07:07.226Z,100283.16
2022-09-09T16:09:40.178Z,100266.94
2022-09-09T16:12:13.082Z,100269.69
2022-09-09T16:14:46.272Z,100273.66
2022-09-09T16:17:17.629Z,100269.59
2022-09-09T16:19:48.964Z,100261.97
2022-09-09T16:22:20.551Z,100246.72
2022-09-09T16:24:52.106Z,100257.47
2022-09-09T16:27:24.171Z,100255.38
2022-09-09T16:29:55.506Z,100239.25
2022-09-09T16:32:27.074Z,100256.22
2022-09-09T16:34:58.511Z,100260.66
2022-09-09T16:37:30.435Z,100257.59
2022-09-09T16:40:04.277Z,100247.38
2022-09-09T16:42:39.418Z,100250.72
2022-09-09T16:45:14.330Z,100262.44
2022-09-09T16:47:45.655Z,100252.94
2022-09-09T16:50:17.283Z,100274.34
2022-09-09T16:52:48.729Z,100265.81
2022-09-09T16:55:23.278Z,100258.81
2022-09-09T16:57:54.916Z,100239.28
2022-09-09T17:00:27.986Z,100261.03
2022-09-09T17:02:59.849Z,100211.78
2022-09-09T17:05:31.226Z,100251.56
2022-09-09T17:08:02.570Z,100220.03
2022-09-09T17:10:34.290Z,100204.44
2022-09-09T17:13:05.670Z,100227.75
2022-09-09T17:15:43.557Z,100225.69
2022-09-09T17:18:14.933Z,100190.56
2022-09-09T17:20:47.457Z,100210.66
2022-09-09T17:23:18.886Z,100207.69
2022-09-09T17:25:59.566Z,100216.91
2022-09-09T17:28:32.149Z,100235.97
2022-09-09T17:31:05.654Z,100268.72
2022-09-09T17:33:42.593Z,100265.63
2022-09-09T17:36:27.035Z,100252.06
2022-09-09T17:39:00.639Z,100279.34
2022-09-09T17:41:38.577Z,100291.78
2022-09-09T17:44:10.692Z,100256.94
2022-09-09T17:46:44.146Z,100236.41
2022-09-09T17:49:18.343Z,100266.06
2022-09-09T17:51:49.666Z,100297.53
2022-09-09T17:54:21.416Z,100297.75
2022-09-09T17:56:53.285Z,100290.41
2022-09-09T17:59:26.011Z,100286.94
2022-09-09T18:01:57.882Z,100246.34
2022-09-09T18:04:29.476Z,100302.44
2022-09-09T18:07:00.831Z,100295.78
2022-09-09T18:09:32.528Z,100258.75
2022-09-09T18:12:04.069Z,100303.16
2022-09-09T18:14:35.462Z,100296.50
2022-09-09T18:17:06.839Z,100304.63
2022-09-09T18:19:38.180Z,100257.00
2022-09-09T18:22:09.565Z,100298.97
2022-09-09T18:24:41.410Z,100258.22
2022-09-09T18:27:12.873Z,100301.88
2022-09-09T18:29:44.534Z,100311.56
2022-09-09T18:32:17.043Z,100255.03
2022-09-09T18:34:51.571Z,100302.06
2022-09-09T18:37:26.184Z,100307.50
2022-09-09T18:39:57.572Z,100318.94
2022-09-09T18:42:28.898Z,100271.97
2022-09-09T18:45:00.636Z,100325.09
2022-09-09T18:47:32.036Z,100260.69
2022-09-09T18:50:04.493Z,100305.09
2022-09-09T18:52:35.831Z,100331.53
2022-09-09T18:55:09.010Z,100324.56
2022-09-09T18:57:41.110Z,100310.00
2022-09-09T19:00:12.820Z,100326.88
2022-09-09T19:02:44.306Z,100320.84
2022-09-09T19:05:15.679Z,100316.72
2022-09-09T19:07:47.076Z,100326.28
2022-09-09T19:10:19.334Z,100327.41
2022-09-09T19:12:51.181Z,100299.75
2022-09-09T19:15:23.011Z,100295.63
2022-09-09T19:17:56.403Z,100316.81
2022-09-09T19:20:27.854Z,100296.88
2022-09-09T19:23:00.100Z,100314.34
2022-09-09T19:25:37.387Z,100319.69
2022-09-09T19:28:08.778Z,100310.13
2022-09-09T19:30:40.258Z,100315.66
2022-09-09T19:33:12.042Z,100323.56
2022-09-09T19:35:43.418Z,100276.75
2022-09-09T19:38:14.806Z,100310.53
2022-09-09T19:40:46.145Z,100311.38
2022-09-09T19:43:17.496Z,100300.16
2022-09-09T19:46:06.565Z,100311.53
2022-09-09T19:48:41.104Z,100317.75
2022-09-09T19:51:17.701Z,100284.97
2022-09-09T19:53:58.058Z,100276.56
2022-09-09T19:56:31.076Z,100273.22
2022-09-09T19:59:03.868Z,100342.06
2022-09-09T20:01:41.566Z,100315.78
2022-09-09T20:04:14.349Z,100313.84
2022-09-09T20:06:46.421Z,100289.06
2022-09-09T20:09:18.304Z,100313.47
2022-09-09T20:11:50.310Z,100363.13
2022-09-09T20:14:21.694Z,100357.72
2022-09-09T20:16:53.102Z,100375.09
2022-09-09T20:19:24.422Z,100373.38
2022-09-09T20:21:56.014Z,100382.81
2022-09-09T20:24:27.476Z,100330.38
2022-09-09T20:26:58.883Z,100373.69
2022-09-09T20:29:30.230Z,100381.13
2022-09-09T20:32:01.753Z,100376.50
2022-09-09T20:34:33.066Z,100375.34
2022-09-09T20:37:05.810Z,100381.44
2022-09-09T20:39:37.310Z,100372.75
2022-09-09T20:42:08.683Z,100400.63
2022-09-09T20:44:39.986Z,100419.22
2022-09-09T20:47:11.419Z,100375.09
2022-09-09T20:49:43.008Z,100385.88
2022-09-09T20:52:15.161Z,100421.78
2022-09-09T20:54:47.393Z,100396.56
2022-09-09T20:57:21.994Z,100398.19
2022-09-09T20:59:53.390Z,100372.22
2022-09-09T21:02:24.860Z,100395.78
2022-09-09T21:04:56.334Z,100400.84
2022-09-09T21:07:29.137Z,100351.78
2022-09-09T21:10:01.978Z,100376.03
2022-09-09T21:12:33.313Z,100375.91
2022-09-09T21:15:05.194Z,100371.56
2022-09-09T21:17:36.674Z,100363.81
2022-09-09T21:20:08.952Z,100315.81
2022-09-09T21:22:40.621Z,100373.22
2022-09-09T21:25:11.908Z,100370.41
2022-09-09T21:27:43.180Z,100350.28
2022-09-09T21:30:14.536Z,100353.09
2022-09-09T21:32:45.906Z,100366.19
2022-09-09T21:35:17.298Z,100379.50
2022-09-09T21:37:49.719Z,100376.03
2022-09-09T21:40:22.371Z,100338.59
2022-09-09T21:42:53.633Z,100359.53
2022-09-09T21:45:26.904Z,100309.13
2022-09-09T21:47:58.247Z,100358.06
2022-09-09T21:50:29.586Z,100372.09
2022-09-09T21:53:00.896Z,100363.28
2022-09-09T21:55:36.866Z,100319.69
2022-09-09T21:58:11.982Z,100340.63
2022-09-09T22:00:45.681Z,100349.59
2022-09-09T22:03:17.483Z,100370.75
2022-09-09T22:05:53.713Z,100315.13
2022-09-09T22:08:25.339Z,100356.13
2022-09-09T22:10:57.611Z,100373.53
2022-09-09T22:13:29.942Z,100373.03
2022-09-09T22:16:04.173Z,100330.91
2022-09-09T22:18:35.966Z,100353.78
2022-09-09T22:21:14.932Z,100378.13
2022-09-09T22:23:52.415Z,100352.16
2022-09-09T22:26:25.361Z,100349.50
2022-09-09T22:28:57.301Z,100344.34
2022-09-09T22:31:28.699Z,100331.19
2022-09-09T22:34:00.198Z,100372.72
2022-09-09T22:36:31.906Z,100369.19
2022-09-09T22:39:03.830Z,100372.66
2022-09-09T22:41:35.130Z,100356.31
2022-09-09T22:44:09.150Z,100320.47
2022-09-09T22:46:40.697Z,100314.53
2022-09-09T22:49:12.466Z,100376.28
2022-09-09T22:51:44.209Z,100340.59
2022-09-09T22:54:21.440Z,100362.47
2022-09-09T22:56:52.968Z,100350.44
2022-09-09T22:59:24.335Z,100366.00
2022-09-09T23:01:57.381Z,100383.72
2022-09-09T23:04:29.023Z,100375.84
2022-09-09T23:07:00.869Z,100377.78
2022-09-09T23:09:32.305Z,100363.00
2022-09-09T23:12:04.430Z,100364.81
2022-09-09T23:14:35.800Z,100368.28
2022-09-09T23:17:07.289Z,100345.75
2022-09-09T23:19:39.978Z,100370.34
2022-09-09T23:22:11.441Z,100338.31
2022-09-09T23:24:42.974Z,100367.13
2022-09-09T23:27:14.462Z,100373.34
2022-09-09T23:29:48.244Z,100371.78
2022-09-09T23:32:19.931Z,100333.97
2022-09-09T23:34:51.658Z,100364.41
2022-09-09T23:37:23.031Z,100367.88
2022-09-09T23:39:54.376Z,100363.91
2022-09-09T23:42:26.877Z,100371.88
2022-09-09T23:44:58.249Z,100324.03
2022-09-09T23:47:29.541Z,100359.00
2022-09-09T23:50:01.561Z,100364.59
2022-09-09T23:52:33.065Z,100369.06
2022-09-09T23:55:05.566Z,100354.41
2022-09-09T23:57:36.914Z,100362.53
